Time;durP1;ratioP1;P1;durP2;ratioP2;P2;SDS_P1;SDS_P2;PMS_P1;PMS_P2;Temp;Humidity;BMP_temperature;BMP_pressure;BME280_temperature;BME280_humidity;BME280_pressure;Samples;Min_cycle;Max_cycle;Signal;HPM_P1;HPM_P2
2023/05/06 00:00:25;;;;;;;;;1.00;1.00;;;;;20.62;43.72;101007.03;4965932;28;60190;-72
2023/05/06 00:02:51;;;;;;;;;2.75;1.00;;;;;20.63;43.84;100999.91;4972263;28;45239;-72
2023/05/06 00:05:17;;;;;;;;;1.00;1.00;;;;;20.63;43.78;101010.56;4973763;28;45503;-72
2023/05/06 00:07:44;;;;;;;;;3.50;2.00;;;;;20.63;43.78;101008.75;4958474;28;48301;-72
2023/05/06 00:10:10;;;;;;;;;2.25;1.00;;;;;20.63;43.66;101007.91;4977546;28;45320;-72
2023/05/06 00:12:35;;;;;;;;;1.00;0.75;;;;;20.62;44.07;101004.38;4959008;28;45540;-72
2023/05/06 00:15:01;;;;;;;;;1.00;1.00;;;;;20.61;43.62;101004.44;4969420;28;73652;-72
2023/05/06 00:17:27;;;;;;;;;3.00;1.00;;;;;20.61;44.00;100999.09;4972672;28;45329;-72
2023/05/06 00:19:52;;;;;;;;;2.00;1.00;;;;;20.60;44.11;101011.56;4965721;28;45208;-72
2023/05/06 00:22:17;;;;;;;;;2.00;1.50;;;;;20.62;43.85;101007.03;4976654;28;56258;-72
2023/05/06 00:24:43;;;;;;;;;1.50;1.00;;;;;20.62;43.78;101008.84;4968119;28;70595;-72
2023/05/06 00:27:08;;;;;;;;;1.00;1.00;;;;;20.63;44.01;101002.59;4976643;28;46992;-72
2023/05/06 00:29:33;;;;;;;;;1.00;1.00;;;;;20.61;43.97;101004.44;4966435;28;45391;-72
2023/05/06 00:31:59;;;;;;;;;3.00;1.75;;;;;20.61;43.78;101000.03;4974579;28;64382;-72
2023/05/06 00:34:25;;;;;;;;;2.00;1.75;;;;;20.61;43.71;101007.09;4966662;28;45254;-72
2023/05/06 00:36:50;;;;;;;;;2.25;2.25;;;;;20.61;43.99;100999.09;4974811;28;74581;-72
2023/05/06 00:39:15;;;;;;;;;2.00;1.75;;;;;20.60;43.61;100995.59;4976409;28;67408;-72
2023/05/06 00:41:41;;;;;;;;;3.00;1.25;;;;;20.62;43.79;100993.72;4957094;28;45313;-72
2023/05/06 00:44:06;;;;;;;;;1.00;1.00;;;;;20.62;43.86;100993.72;4969595;28;61973;-71
2023/05/06 00:46:32;;;;;;;;;4.25;0.25;;;;;20.61;43.65;100988.47;4971683;28;69752;-72
2023/05/06 00:48:57;;;;;;;;;3.00;1.00;;;;;20.62;44.21;100990.22;4971416;28;45368;-72
2023/05/06 00:51:23;;;;;;;;;2.75;1.00;;;;;20.62;43.96;100988.41;4970695;28;68514;-72
2023/05/06 00:53:48;;;;;;;;;2.00;2.00;;;;;20.60;43.71;100979.66;4969647;28;57147;-72
2023/05/06 00:56:16;;;;;;;;;2.25;1.00;;;;;20.61;44.15;100983.16;4972382;28;45350;-72
2023/05/06 00:58:42;;;;;;;;;2.00;1.00;;;;;20.61;43.52;100983.16;4976409;28;45509;-72
2023/05/06 01:01:08;;;;;;;;;1.00;1.00;;;;;20.61;43.75;100989.38;4972267;28;45288;-72
2023/05/06 01:03:33;;;;;;;;;1.75;1.00;;;;;20.62;43.89;100992.88;4959776;28;71341;-72
2023/05/06 01:06:15;;;;;;;;;3.00;1.75;;;;;20.60;43.74;100981.47;4971382;28;70060;-72
2023/05/06 01:08:47;;;;;;;;;1.50;1.00;;;;;20.58;43.64;100978.06;4964273;28;45364;-72
2023/05/06 01:11:16;;;;;;;;;0.50;0.50;;;;;20.60;43.85;100977.00;4973718;28;45496;-72
2023/05/06 01:13:47;;;;;;;;;2.00;1.00;;;;;20.61;43.77;100977.84;4973582;28;45166;-72
2023/05/06 01:16:15;;;;;;;;;1.00;1.00;;;;;20.61;44.03;100981.41;4973820;28;45482;-72
2023/05/06 01:18:41;;;;;;;;;2.50;2.00;;;;;20.60;43.85;100982.31;4964524;28;45686;-72
2023/05/06 01:21:08;;;;;;;;;1.00;1.00;;;;;20.59;44.05;100980.63;4967533;28;66902;-72
2023/05/06 01:23:56;;;;;;;;;2.00;1.75;;;;;20.62;43.76;100979.59;4966245;28;63078;-72
2023/05/06 01:26:22;;;;;;;;;3.75;2.00;;;;;20.61;44.05;100977.84;4976509;28;46211;-72
2023/05/06 01:28:48;;;;;;;;;2.75;1.00;;;;;20.60;44.00;100977.00;4974365;28;46058;-72
2023/05/06 01:31:25;;;;;;;;;3.00;1.00;;;;;20.60;44.06;100977.00;4968689;28;65689;-72
2023/05/06 01:34:09;;;;;;;;;2.00;2.00;;;;;20.61;44.00;100972.50;4966796;28;45384;-72
2023/05/06 01:36:45;;;;;;;;;1.00;1.00;;;;;20.60;43.82;100973.50;4969381;28;47420;-72
2023/05/06 01:39:24;;;;;;;;;3.00;1.00;;;;;20.59;44.13;100971.78;4971166;28;45501;-72
2023/05/06 01:41:50;;;;;;;;;1.00;1.00;;;;;20.59;43.65;100967.31;4959905;28;45299;-72
2023/05/06 01:44:16;;;;;;;;;1.75;1.00;;;;;20.60;44.16;100971.66;4964493;28;70229;-72
2023/05/06 01:46:43;;;;;;;;;1.00;1.00;;;;;20.60;44.13;100963.69;4972099;28;50508;-72
2023/05/06 01:49:10;;;;;;;;;0.75;0.75;;;;;20.61;43.97;100964.53;4953280;28;45558;-72
2023/05/06 01:51:36;;;;;;;;;1.00;1.00;;;;;20.59;44.12;100962.00;4963905;28;45432;-72
2023/05/06 01:54:02;;;;;;;;;1.00;1.00;;;;;20.59;44.06;100966.44;4964904;28;45768;-72
2023/05/06 01:56:29;;;;;;;;;0.75;0.50;;;;;20.59;44.20;100959.34;4971762;28;48234;-72
2023/05/06 01:58:56;;;;;;;;;1.00;1.00;;;;;20.59;43.87;100963.78;4974167;28;45878;-72
2023/05/06 02:01:21;;;;;;;;;2.00;1.00;;;;;20.59;43.63;100955.81;4972880;28;45260;-72
2023/05/06 02:03:46;;;;;;;;;3.00;1.00;;;;;20.59;44.18;100963.78;4952747;28;71411;-72
2023/05/06 02:06:12;;;;;;;;;1.00;1.00;;;;;20.59;44.12;100954.03;4965518;28;45735;-72
2023/05/06 02:08:38;;;;;;;;;1.00;1.00;;;;;20.61;44.24;100967.19;4973737;28;69368;-72
2023/05/06 02:11:03;;;;;;;;;1.00;0.75;;;;;20.59;43.92;100958.47;4962652;28;45552;-72
2023/05/06 02:13:29;;;;;;;;;3.50;2.00;;;;;20.58;43.80;100957.63;4972585;28;73349;-72
2023/05/06 02:15:54;;;;;;;;;1.00;1.00;;;;;20.60;44.10;100966.34;4969869;28;45484;-72
2023/05/06 02:18:20;;;;;;;;;0.25;0.25;;;;;20.58;44.23;100956.78;4974088;28;45364;-72
2023/05/06 02:20:45;;;;;;;;;1.00;1.00;;;;;20.60;43.74;100968.16;4964962;28;45325;-72
2023/05/06 02:23:11;;;;;;;;;1.00;1.00;;;;;20.59;44.06;100966.44;4971999;28;71641;-72
2023/05/06 02:25:36;;;;;;;;;2.00;1.75;;;;;20.59;44.29;100974.44;4977575;28;64381;-72
2023/05/06 02:28:01;;;;;;;;;2.25;1.00;;;;;20.58;43.84;100965.59;4984482;28;45365;-72
2023/05/06 02:30:29;;;;;;;;;1.00;1.00;;;;;20.58;43.74;100965.59;4971757;28;45991;-72
2023/05/06 02:32:54;;;;;;;;;2.00;0.25;;;;;20.60;44.33;100962.84;4972453;28;45253;-72
2023/05/06 02:35:20;;;;;;;;;1.00;1.00;;;;;20.58;43.98;100956.78;4963954;28;46635;-72
2023/05/06 02:37:45;;;;;;;;;1.00;1.00;;;;;20.60;44.27;100954.88;4968173;28;58258;-72
2023/05/06 02:40:11;;;;;;;;;1.00;1.00;;;;;20.59;43.93;100953.16;4974149;28;65724;-72
2023/05/06 02:42:36;;;;;;;;;0.00;0.00;;;;;20.60;44.08;100960.19;4968110;28;45472;-72
2023/05/06 02:45:01;;;;;;;;;1.25;0.25;;;;;20.57;43.96;100958.56;4962421;28;73559;-72
2023/05/06 02:47:27;;;;;;;;;1.75;1.75;;;;;20.58;43.91;100960.28;4978612;28;45324;-72
2023/05/06 02:49:52;;;;;;;;;1.00;1.00;;;;;20.58;44.20;100962.94;4964015;28;56092;-72
2023/05/06 02:52:17;;;;;;;;;2.00;2.00;;;;;20.57;44.19;100958.56;4964532;28;68794;-72
2023/05/06 02:54:43;;;;;;;;;1.00;1.00;;;;;20.58;44.30;100959.44;4965298;28;76351;-72
2023/05/06 02:57:08;;;;;;;;;2.00;1.50;;;;;20.59;43.97;100947.84;4965101;28;70362;-72
2023/05/06 02:59:34;;;;;;;;;2.00;1.00;;;;;20.59;43.81;100950.50;4968346;28;49086;-72
2023/05/06 03:01:59;;;;;;;;;1.00;1.00;;;;;20.57;43.98;100947.94;4970401;28;45250;-72
2023/05/06 03:04:25;;;;;;;;;0.00;0.00;;;;;20.60;44.28;100952.22;4949705;28;48081;-72
2023/05/06 03:06:50;;;;;;;;;1.00;1.00;;;;;20.59;44.00;100948.72;4967711;28;69754;-72
2023/05/06 03:09:15;;;;;;;;;1.00;0.25;;;;;20.58;44.17;100949.66;4969972;28;50443;-72
2023/05/06 03:11:41;;;;;;;;;1.25;1.00;;;;;20.60;44.04;100945.09;4969214;28;45422;-72
2023/05/06 03:14:06;;;;;;;;;1.75;1.75;;;;;20.59;43.69;100942.53;4967869;28;64452;-72
2023/05/06 03:16:31;;;;;;;;;1.00;1.00;;;;;20.58;43.84;100943.50;4968148;28;64635;-72
2023/05/06 03:18:57;;;;;;;;;1.25;0.75;;;;;20.58;43.91;100944.34;4969229;28;45857;-72
2023/05/06 03:21:22;;;;;;;;;2.00;1.00;;;;;20.59;43.72;100950.50;4972609;28;58820;-72
2023/05/06 03:23:47;;;;;;;;;0.00;0.00;;;;;20.57;44.42;100941.78;4970066;28;75223;-72
2023/05/06 03:26:13;;;;;;;;;0.25;0.25;;;;;20.57;44.15;100942.63;4965870;28;71444;-72
2023/05/06 03:28:41;;;;;;;;;0.00;0.00;;;;;20.59;44.06;100940.75;4953202;28;45369;-72
2023/05/06 03:31:06;;;;;;;;;0.75;0.75;;;;;20.58;43.94;100935.50;4955716;28;45470;-72
2023/05/06 03:33:32;;;;;;;;;1.00;1.00;;;;;20.59;44.06;100947.84;4966772;28;75444;-72
2023/05/06 03:35:57;;;;;;;;;1.50;1.00;;;;;20.59;43.94;100940.75;4961722;28;71690;-72
2023/05/06 03:38:22;;;;;;;;;1.75;1.00;;;;;20.58;43.98;100940.84;4968028;28;65049;-72
2023/05/06 03:40:48;;;;;;;;;1.00;1.00;;;;;20.57;43.81;100939.13;4960022;28;72181;-72
2023/05/06 03:43:13;;;;;;;;;2.00;1.25;;;;;20.58;43.87;100939.00;4965205;28;72621;-72
2023/05/06 03:45:38;;;;;;;;;2.50;2.00;;;;;20.58;44.12;100941.69;4974496;28;45244;-72
2023/05/06 03:48:04;;;;;;;;;2.00;2.00;;;;;20.59;44.22;100947.84;4972021;28;69304;-72
2023/05/06 03:50:29;;;;;;;;;2.75;1.00;;;;;20.59;44.21;100939.84;4967838;28;45376;-72
2023/05/06 03:52:55;;;;;;;;;4.25;2.00;;;;;20.58;44.33;100931.03;4975212;28;46342;-72
2023/05/06 03:55:20;;;;;;;;;6.00;3.25;;;;;20.55;43.89;100927.72;4961408;28;62945;-72
2023/05/06 03:57:45;;;;;;;;;3.75;3.50;;;;;20.58;43.78;100935.50;4958942;28;67684;-72
2023/05/06 04:00:11;;;;;;;;;6.50;3.00;;;;;20.58;43.81;100938.19;4968035;28;45669;-72
2023/05/06 04:02:37;;;;;;;;;4.00;2.25;;;;;20.58;44.30;100944.34;4976895;28;46354;-72
2023/05/06 04:05:02;;;;;;;;;3.25;2.75;;;;;20.58;43.92;100947.00;4985170;28;45268;-72
2023/05/06 04:07:28;;;;;;;;;2.00;2.00;;;;;20.57;44.05;100931.97;4978135;28;45449;-72
2023/05/06 04:09:53;;;;;;;;;2.25;2.25;;;;;20.57;44.28;100936.47;4968001;28;45225;-72
2023/05/06 04:12:19;;;;;;;;;4.50;3.50;;;;;20.55;44.13;100931.25;4972487;28;55598;-72
2023/05/06 04:14:44;;;;;;;;;3.00;2.00;;;;;20.58;44.06;100932.84;4970542;28;45193;-72
2023/05/06 04:17:09;;;;;;;;;6.00;2.50;;;;;20.57;43.89;100936.47;4968932;28;45248;-72
2023/05/06 04:19:35;;;;;;;;;4.50;3.00;;;;;20.57;43.94;100931.13;4969010;28;45588;-72
2023/05/06 04:22:01;;;;;;;;;3.00;2.00;;;;;20.58;44.39;100940.84;4971239;28;45380;-72
2023/05/06 04:24:30;;;;;;;;;5.25;2.00;;;;;20.57;44.10;100929.31;4970153;28;45381;-72
2023/05/06 04:26:55;;;;;;;;;3.50;2.00;;;;;20.58;44.11;100927.53;4973666;28;45450;-72
2023/05/06 04:29:20;;;;;;;;;6.00;4.00;;;;;20.57;44.27;100915.19;4969141;28;45452;-72
2023/05/06 04:31:46;;;;;;;;;4.00;2.00;;;;;20.58;44.23;100920.41;4973114;28;61515;-72
2023/05/06 04:34:12;;;;;;;;;4.50;3.00;;;;;20.57;44.27;100918.69;4968537;28;45180;-72
2023/05/06 04:36:37;;;;;;;;;2.75;2.75;;;;;20.57;44.29;100920.50;4970825;28;45186;-72
2023/05/06 04:39:05;;;;;;;;;4.00;2.00;;;;;20.57;44.43;100925.81;4970119;28;45489;-72
2023/05/06 04:41:32;;;;;;;;;3.00;3.00;;;;;20.58;43.83;100928.38;4969134;28;46583;-72
2023/05/06 04:43:57;;;;;;;;;3.75;2.75;;;;;20.60;44.33;100922.97;4972845;28;45418;-72
2023/05/06 04:46:22;;;;;;;;;3.00;2.00;;;;;20.57;44.30;100921.34;4969737;28;45375;-72
2023/05/06 04:48:48;;;;;;;;;3.00;2.75;;;;;20.58;44.19;100914.25;4971961;28;45613;-72
2023/05/06 04:51:13;;;;;;;;;2.00;2.00;;;;;20.59;44.00;100921.25;4971369;28;69422;-72
2023/05/06 04:53:40;;;;;;;;;6.00;3.75;;;;;20.58;44.36;100917.75;4970271;28;45295;-72
2023/05/06 04:56:05;;;;;;;;;2.00;2.00;;;;;20.57;44.44;100918.69;4977065;28;45438;-72
2023/05/06 04:58:31;;;;;;;;;3.50;2.25;;;;;20.57;43.90;100921.34;4963119;28;45447;-72
2023/05/06 05:00:56;;;;;;;;;4.00;2.00;;;;;20.58;44.36;100919.56;4975478;28;53861;-72
2023/05/06 05:03:22;;;;;;;;;3.50;3.00;;;;;20.57;44.35;100924.00;4962814;28;45496;-72
2023/05/06 05:05:47;;;;;;;;;2.00;2.00;;;;;20.59;43.94;100924.78;4966225;28;45253;-72
2023/05/06 05:08:13;;;;;;;;;2.25;1.75;;;;;20.58;44.42;100925.72;4963129;28;45687;-72
2023/05/06 05:10:42;;;;;;;;;3.00;3.00;;;;;20.56;44.11;100924.97;4976301;28;46022;-72
2023/05/06 05:13:07;;;;;;;;;3.50;2.00;;;;;20.58;43.99;100935.50;4959908;28;45374;-72
2023/05/06 05:15:33;;;;;;;;;2.50;2.25;;;;;20.60;44.32;100938.91;4977076;28;45641;-72
2023/05/06 05:17:58;;;;;;;;;2.75;2.75;;;;;20.57;44.28;100939.97;4975172;28;45774;-72
2023/05/06 05:20:23;;;;;;;;;5.00;2.50;;;;;20.59;43.98;100938.06;4954824;28;69785;-72
2023/05/06 05:22:49;;;;;;;;;3.75;2.00;;;;;20.59;44.04;100946.06;4972586;28;66828;-72
2023/05/06 05:25:14;;;;;;;;;3.00;2.00;;;;;20.56;44.04;100943.59;4970383;28;45301;-72
2023/05/06 05:27:41;;;;;;;;;2.00;2.00;;;;;20.58;44.51;100943.50;4971806;28;45513;-72
2023/05/06 05:30:07;;;;;;;;;2.00;2.00;;;;;20.60;43.98;100952.22;4955734;28;48144;-72
2023/05/06 05:32:32;;;;;;;;;2.00;2.00;;;;;20.58;44.30;100943.50;4971255;28;45663;-72
2023/05/06 05:34:57;;;;;;;;;4.25;2.50;;;;;20.59;44.42;100959.34;4961407;28;67392;-73
2023/05/06 05:37:23;;;;;;;;;1.75;1.75;;;;;20.59;44.18;100954.03;4956376;28;45471;-72
2023/05/06 05:39:48;;;;;;;;;2.00;2.00;;;;;20.58;44.07;100960.28;4974165;28;45412;-72
2023/05/06 05:42:14;;;;;;;;;2.25;2.00;;;;;20.58;44.52;100960.28;4976406;28;45246;-72
2023/05/06 05:44:39;;;;;;;;;2.00;2.00;;;;;20.57;43.73;100958.56;4966572;28;45309;-72
2023/05/06 05:47:04;;;;;;;;;4.00;2.50;;;;;20.59;44.13;100963.78;4956930;28;45395;-72
2023/05/06 05:49:30;;;;;;;;;2.25;2.00;;;;;20.59;44.04;100958.47;4960569;28;45387;-72
2023/05/06 05:51:56;;;;;;;;;2.00;1.75;;;;;20.56;44.16;100959.53;4976284;28;45246;-72
2023/05/06 05:54:21;;;;;;;;;3.25;2.75;;;;;20.54;44.34;100956.13;4967836;28;45454;-72
2023/05/06 05:56:46;;;;;;;;;1.00;1.00;;;;;20.57;43.96;100950.59;4971552;28;45568;-72
2023/05/06 05:59:12;;;;;;;;;2.00;2.00;;;;;20.58;44.54;100954.13;4961612;28;46345;-72
2023/05/06 06:01:37;;;;;;;;;3.00;3.00;;;;;20.57;44.43;100955.91;4952801;28;73751;-72
2023/05/06 06:04:02;;;;;;;;;2.00;2.00;;;;;20.58;43.82;100962.94;4966506;28;63581;-72
2023/05/06 06:06:28;;;;;;;;;1.25;1.00;;;;;20.59;44.56;100966.44;4956940;28;45581;-72
2023/05/06 06:08:53;;;;;;;;;3.00;2.00;;;;;20.58;44.23;100962.94;4949097;28;49605;-72
2023/05/06 06:11:20;;;;;;;;;3.00;1.75;;;;;20.59;44.05;100967.31;4955124;28;45459;-72
2023/05/06 06:13:45;;;;;;;;;2.25;2.00;;;;;20.59;44.17;100975.31;4966819;28;45516;-72
2023/05/06 06:16:11;;;;;;;;;2.50;1.25;;;;;20.60;44.25;100978.81;4966760;28;45400;-72
2023/05/06 06:18:36;;;;;;;;;2.00;1.75;;;;;20.59;44.35;100979.75;4968627;28;46604;-72
2023/05/06 06:21:01;;;;;;;;;2.25;2.00;;;;;20.60;44.11;100978.81;4971816;28;45423;-72
2023/05/06 06:23:27;;;;;;;;;2.50;2.25;;;;;20.58;44.18;100978.06;4972887;28;45604;-72
2023/05/06 06:25:52;;;;;;;;;3.00;2.00;;;;;20.59;44.37;100982.41;4972193;28;67982;-72
2023/05/06 06:28:17;;;;;;;;;3.50;2.00;;;;;20.58;43.89;100978.06;4964803;28;67040;-72
2023/05/06 06:30:43;;;;;;;;;3.00;2.00;;;;;20.59;44.42;100980.63;4964853;28;63889;-72
2023/05/06 06:33:08;;;;;;;;;2.75;2.50;;;;;20.60;43.96;100976.16;4975690;28;45509;-72
2023/05/06 06:35:34;;;;;;;;;2.25;2.25;;;;;20.59;44.29;100977.97;4964627;28;71175;-72
2023/05/06 06:37:59;;;;;;;;;2.00;1.00;;;;;20.57;44.07;100974.53;4973517;28;45339;-72
2023/05/06 06:40:24;;;;;;;;;2.00;2.00;;;;;20.60;44.05;100974.34;4964001;28;45465;-72
2023/05/06 06:42:50;;;;;;;;;2.00;1.00;;;;;20.62;44.34;100982.25;4972944;28;48962;-72
2023/05/06 06:45:15;;;;;;;;;1.25;1.25;;;;;20.59;44.14;100977.97;4971510;28;58006;-72
2023/05/06 06:47:41;;;;;;;;;3.00;2.00;;;;;20.60;44.61;100973.50;4972810;28;47136;-72
2023/05/06 06:50:07;;;;;;;;;1.50;1.00;;;;;20.60;44.42;100970.81;4956213;28;68163;-72
2023/05/06 06:52:34;;;;;;;;;2.00;2.00;;;;;20.60;44.26;100968.16;4971455;28;45472;-73
2023/05/06 06:54:59;;;;;;;;;4.25;1.00;;;;;20.58;43.91;100962.09;4955784;28;45383;-72
2023/05/06 06:57:25;;;;;;;;;2.00;2.00;;;;;20.60;44.06;100969.00;4963852;28;45404;-72
2023/05/06 06:59:52;;;;;;;;;3.00;3.00;;;;;20.60;44.66;100974.34;4965760;28;45526;-72
2023/05/06 07:02:18;;;;;;;;;1.00;1.00;;;;;20.61;44.28;100970.75;4966548;28;45331;-72
2023/05/06 07:04:43;;;;;;;;;3.00;3.00;;;;;20.61;44.48;100978.75;4965482;28;45364;-72
2023/05/06 07:07:08;;;;;;;;;3.25;2.00;;;;;20.59;44.35;100972.66;4971845;28;65450;-72
2023/05/06 07:09:34;;;;;;;;;2.00;2.00;;;;;20.62;43.93;100988.41;4962946;28;66389;-72
2023/05/06 07:12:00;;;;;;;;;2.00;2.00;;;;;20.61;44.13;100981.41;4957499;28;45383;-72
2023/05/06 07:14:26;;;;;;;;;2.00;1.75;;;;;20.60;43.87;100979.66;4965794;28;45423;-73
2023/05/06 07:16:51;;;;;;;;;2.00;2.00;;;;;20.63;44.10;100983.97;4953154;28;47111;-72
2023/05/06 07:19:16;;;;;;;;;2.00;2.00;;;;;20.60;44.43;100981.47;4966343;28;45347;-72
2023/05/06 07:21:42;;;;;;;;;2.00;2.00;;;;;20.63;44.17;100986.63;4949813;28;61237;-72
2023/05/06 07:24:07;;;;;;;;;1.75;1.75;;;;;20.62;44.13;100988.41;4950260;28;47998;-72
2023/05/06 07:26:36;;;;;;;;;3.25;2.50;;;;;20.62;44.08;100987.56;4988822;28;45447;-72
2023/05/06 07:29:03;;;;;;;;;2.50;2.50;;;;;20.64;44.69;100988.31;4955168;28;45698;-73
2023/05/06 07:31:28;;;;;;;;;3.00;3.00;;;;;20.63;44.20;100986.63;4975310;28;45396;-72
2023/05/06 07:33:53;;;;;;;;;2.25;2.00;;;;;20.63;44.16;100981.31;4969337;28;45412;-72
2023/05/06 07:36:19;;;;;;;;;1.75;1.75;;;;;20.63;44.40;100978.66;4970551;28;73675;-72
2023/05/06 07:38:44;;;;;;;;;2.50;2.00;;;;;20.64;44.11;100985.66;4970958;28;60506;-72
2023/05/06 07:41:09;;;;;;;;;1.50;1.50;;;;;20.62;44.47;100980.44;4961041;28;45601;-72
2023/05/06 07:43:35;;;;;;;;;1.50;1.50;;;;;20.64;44.22;100993.63;4968270;28;45542;-72
2023/05/06 07:46:03;;;;;;;;;3.25;2.00;;;;;20.65;44.33;100987.38;4973632;28;46179;-72
2023/05/06 07:48:29;;;;;;;;;4.50;1.25;;;;;20.64;44.48;100988.31;4971907;28;45687;-72
2023/05/06 07:50:54;;;;;;;;;5.00;1.75;;;;;20.64;44.24;100993.63;4968703;28;45387;-72
2023/05/06 07:53:20;;;;;;;;;3.50;2.00;;;;;20.65;44.47;100987.38;4988497;28;45474;-72
2023/05/06 07:55:45;;;;;;;;;3.00;2.00;;;;;20.64;44.27;100990.97;4967781;28;46653;-72
2023/05/06 07:58:11;;;;;;;;;2.50;2.00;;;;;20.65;44.08;101004.16;4975442;28;45780;-72
2023/05/06 08:00:36;;;;;;;;;3.00;3.00;;;;;20.64;44.37;100997.13;4970927;28;58170;-72
2023/05/06 08:03:01;;;;;;;;;4.25;3.50;;;;;20.64;44.18;101005.13;4963573;28;56085;-72
2023/05/06 08:05:26;;;;;;;;;4.00;2.50;;;;;20.64;44.50;101005.13;4968780;28;72255;-72
2023/05/06 08:07:52;;;;;;;;;2.25;2.25;;;;;20.64;44.34;100997.13;4958222;28;72799;-72
2023/05/06 08:10:18;;;;;;;;;6.00;2.75;;;;;20.66;44.33;101005.00;4970619;28;45245;-72
2023/05/06 08:12:47;;;;;;;;;3.00;2.25;;;;;20.62;44.23;100990.22;4973573;28;45571;-72
2023/05/06 08:15:12;;;;;;;;;7.25;2.00;;;;;20.63;44.34;101002.59;4968975;28;46756;-72
2023/05/06 08:17:38;;;;;;;;;3.00;3.00;;;;;20.65;44.71;101006.84;4973884;28;45328;-72
2023/05/06 08:20:04;;;;;;;;;2.00;2.00;;;;;20.65;44.31;101006.00;4970822;28;46087;-72
2023/05/06 08:22:30;;;;;;;;;2.50;2.50;;;;;20.64;44.03;100997.13;4972210;28;45467;-72
2023/05/06 08:24:56;;;;;;;;;3.25;2.00;;;;;20.65;44.24;101004.16;4963467;28;73307;-72
2023/05/06 08:27:21;;;;;;;;;3.00;2.25;;;;;20.65;44.18;101006.84;4975262;28;45388;-72
2023/05/06 08:29:47;;;;;;;;;2.00;2.00;;;;;20.65;44.40;100996.19;4960422;28;45437;-72
2023/05/06 08:32:12;;;;;;;;;2.25;1.50;;;;;20.67;44.67;100994.28;4974025;28;70171;-72
2023/05/06 08:34:37;;;;;;;;;5.25;2.50;;;;;20.66;44.54;101002.34;4969499;28;45356;-72
2023/05/06 08:37:03;;;;;;;;;6.25;2.00;;;;;20.66;44.54;100995.25;4974363;28;64951;-72
2023/05/06 08:39:29;;;;;;;;;1.75;1.75;;;;;20.64;44.11;100997.13;4973641;28;61413;-72
2023/05/06 08:41:55;;;;;;;;;2.00;2.00;;;;;20.67;44.55;100998.75;4978159;28;45371;-72
2023/05/06 08:44:23;;;;;;;;;3.75;2.00;;;;;20.68;44.15;101000.44;4971662;28;48310;-72
2023/05/06 08:46:48;;;;;;;;;3.25;2.25;;;;;20.66;44.09;100995.25;4977201;28;45465;-73
2023/05/06 08:49:14;;;;;;;;;4.00;1.75;;;;;20.69;44.25;100994.19;4970948;28;45344;-72
2023/05/06 08:51:42;;;;;;;;;2.25;2.00;;;;;20.69;44.53;100990.69;4958860;28;45447;-72
2023/05/06 08:54:09;;;;;;;;;3.00;2.25;;;;;20.68;44.14;100995.13;4956779;28;47600;-72
2023/05/06 08:56:35;;;;;;;;;3.75;1.75;;;;;20.67;44.40;100985.47;4964977;28;45203;-72
2023/05/06 08:59:01;;;;;;;;;2.00;2.00;;;;;20.69;44.32;100990.69;4972618;28;45157;-72
2023/05/06 09:01:27;;;;;;;;;2.75;2.00;;;;;20.67;44.45;101002.25;4973922;28;48596;-72
2023/05/06 09:03:54;;;;;;;;;3.50;2.00;;;;;20.70;44.34;100997.69;4973026;28;46156;-72
2023/05/06 09:06:20;;;;;;;;;3.75;2.00;;;;;20.69;43.92;100996.00;4968192;28;45497;-72
2023/05/06 09:08:45;;;;;;;;;1.50;1.50;;;;;20.69;44.28;100996.84;4966739;28;58099;-72
2023/05/06 09:11:28;;;;;;;;;3.50;2.00;;;;;20.70;44.07;100995.91;4971771;28;45372;-72
2023/05/06 09:14:10;;;;;;;;;2.00;2.00;;;;;20.71;44.43;100991.44;4967995;28;46313;-72
2023/05/06 09:16:36;;;;;;;;;2.25;1.75;;;;;20.69;44.22;100991.53;4967967;28;45677;-72
2023/05/06 09:19:01;;;;;;;;;3.25;2.00;;;;;20.70;44.44;100989.72;4967543;28;45506;-72
2023/05/06 09:21:37;;;;;;;;;1.50;1.50;;;;;20.72;44.42;100998.47;4971235;28;45390;-72
2023/05/06 09:24:03;;;;;;;;;1.75;1.75;;;;;20.71;44.18;100994.09;4969974;28;45658;-72
2023/05/06 09:26:30;;;;;;;;;2.75;2.00;;;;;20.72;44.35;100994.00;4963507;28;45274;-72
2023/05/06 09:28:56;;;;;;;;;2.75;2.00;;;;;20.67;44.54;100986.31;4972161;28;45426;-72
2023/05/06 09:31:22;;;;;;;;;1.00;1.00;;;;;20.72;43.89;100996.66;4949016;28;45606;-72
2023/05/06 09:33:47;;;;;;;;;2.75;2.00;;;;;20.67;44.12;100986.31;4972069;28;45582;-72
2023/05/06 09:36:13;;;;;;;;;2.50;2.50;;;;;20.74;44.39;100993.91;4969661;28;45258;-72
2023/05/06 09:38:39;;;;;;;;;1.00;1.00;;;;;20.72;44.04;100996.66;4972368;28;54294;-72
2023/05/06 09:41:06;;;;;;;;;2.00;2.00;;;;;20.73;44.24;100995.69;4965646;28;45831;-72
2023/05/06 09:43:31;;;;;;;;;2.00;2.00;;;;;20.73;44.03;100986.84;4975155;28;45628;-72
2023/05/06 09:45:57;;;;;;;;;2.50;2.00;;;;;20.73;44.04;100992.19;4976213;28;45355;-72
2023/05/06 09:48:22;;;;;;;;;1.75;1.75;;;;;20.74;44.17;100992.09;4960392;28;45477;-72
2023/05/06 09:50:49;;;;;;;;;2.00;1.75;;;;;20.73;44.13;100982.38;4975540;28;61044;-73
2023/05/06 09:53:16;;;;;;;;;5.00;2.00;;;;;20.73;44.05;100979.72;4973702;28;45331;-72
2023/05/06 09:55:42;;;;;;;;;3.25;2.00;;;;;20.73;44.03;100973.56;4965910;28;45466;-72
2023/05/06 09:58:08;;;;;;;;;1.00;1.00;;;;;20.72;44.06;100977.19;4970223;28;63691;-72
2023/05/06 10:00:34;;;;;;;;;3.00;2.25;;;;;20.75;44.42;100980.50;4975806;28;66959;-73
2023/05/06 10:03:00;;;;;;;;;1.00;1.00;;;;;20.75;44.26;100972.53;4963375;28;45416;-72
2023/05/06 10:05:27;;;;;;;;;2.00;2.00;;;;;20.75;44.27;100966.31;4964416;28;46359;-72
2023/05/06 10:07:53;;;;;;;;;2.75;2.50;;;;;20.75;44.61;100964.53;5001840;28;65351;-73
2023/05/06 10:10:19;;;;;;;;;1.50;1.50;;;;;20.74;44.10;100968.16;4951932;28;45357;-72
2023/05/06 10:12:45;;;;;;;;;4.25;1.75;;;;;20.74;44.32;100973.47;4973396;28;46378;-73
2023/05/06 10:15:10;;;;;;;;;3.00;2.00;;;;;20.73;44.41;100963.75;4972084;28;45300;-72
2023/05/06 10:17:38;;;;;;;;;2.25;1.75;;;;;20.73;44.13;100965.59;4972243;28;45356;-72
2023/05/06 10:20:06;;;;;;;;;2.25;1.00;;;;;20.76;44.37;100970.72;4952645;28;47626;-72
2023/05/06 10:22:44;;;;;;;;;1.50;1.50;;;;;20.76;44.04;100962.72;4961653;28;46427;-72
2023/05/06 10:25:15;;;;;;;;;3.00;1.75;;;;;20.76;44.35;100962.72;4964651;28;45672;-72
2023/05/06 10:27:42;;;;;;;;;2.00;1.50;;;;;20.71;44.06;100957.69;4961207;28;45514;-72
2023/05/06 10:30:09;;;;;;;;;1.75;1.00;;;;;20.77;44.39;100964.41;4954763;28;49161;-72
2023/05/06 10:32:37;;;;;;;;;3.00;1.25;;;;;20.76;44.03;100962.72;4971605;28;46376;-73
2023/05/06 10:35:17;;;;;;;;;4.00;1.75;;;;;20.74;44.35;100960.16;4962053;28;45812;-72
2023/05/06 10:37:45;;;;;;;;;2.25;2.25;;;;;20.73;44.02;100952.28;4963004;28;45469;-73
2023/05/06 10:40:10;;;;;;;;;1.00;1.00;;;;;20.76;44.36;100958.25;4971034;28;45312;-72
2023/05/06 10:42:36;;;;;;;;;1.75;1.75;;;;;20.75;43.66;100956.56;4989390;28;45405;-72
2023/05/06 10:45:02;;;;;;;;;2.50;1.00;;;;;20.78;44.52;100958.16;4951131;28;70668;-72
2023/05/06 10:47:53;;;;;;;;;2.75;2.00;;;;;20.78;44.07;100956.34;4973096;28;45179;-72
2023/05/06 10:50:22;;;;;;;;;3.25;1.25;;;;;20.76;44.42;100950.28;4971494;28;45634;-72
2023/05/06 10:52:54;;;;;;;;;2.00;2.00;;;;;20.77;44.12;100946.66;4969419;28;46170;-73
2023/05/06 10:55:35;;;;;;;;;2.00;2.00;;;;;20.79;44.21;100946.56;4969319;28;46112;-72
2023/05/06 10:58:18;;;;;;;;;3.00;2.50;;;;;20.78;44.33;100944.84;4973464;28;45665;-72
2023/05/06 11:00:54;;;;;;;;;2.50;1.75;;;;;20.77;43.82;100936.03;4968498;28;48034;-72
2023/05/06 11:03:22;;;;;;;;;2.00;2.00;;;;;20.77;44.10;100944.00;4975254;28;48064;-72
2023/05/06 11:05:49;;;;;;;;;2.00;2.00;;;;;20.77;44.39;100943.13;4974380;28;45380;-72
2023/05/06 11:08:20;;;;;;;;;3.75;2.00;;;;;20.76;43.89;100936.97;4974802;28;45318;-72
2023/05/06 11:10:48;;;;;;;;;2.25;1.00;;;;;20.77;44.42;100940.47;4967416;28;45261;-72
2023/05/06 11:13:27;;;;;;;;;3.75;1.75;;;;;20.79;44.22;100933.28;4959601;28;45655;-72
2023/05/06 11:15:54;;;;;;;;;1.50;1.50;;;;;20.78;44.08;100928.91;4963893;28;45792;-72
2023/05/06 11:18:35;;;;;;;;;1.75;1.25;;;;;20.80;44.03;100934.97;4962149;28;45376;-72
2023/05/06 11:21:04;;;;;;;;;1.00;1.00;;;;;20.80;44.07;100930.47;4969434;28;45436;-72